sensor_id;sensor_type;location;lat;lon;timestamp;pressure;altitude;pressure_sealevel;temperature;humidity
26823;BME280;14852;51.910;8.878;2023-04-10T00:00:00;100524.84;;;6.24;51.40
26823;BME280;14852;51.910;8.878;2023-04-10T00:02:25;100528.16;;;6.31;51.46
26823;BME280;14852;51.910;8.878;2023-04-10T00:04:51;100527.25;;;6.33;51.49
26823;BME280;14852;51.910;8.878;2023-04-10T00:07:17;100523.84;;;6.31;51.33
26823;BME280;14852;51.910;8.878;2023-04-10T00:09:43;100523.78;;;6.34;51.57
26823;BME280;14852;51.910;8.878;2023-04-10T00:12:09;100517.50;;;6.44;51.50
26823;BME280;14852;51.910;8.878;2023-04-10T00:14:36;100513.88;;;6.53;51.76
26823;BME280;14852;51.910;8.878;2023-04-10T00:17:02;100516.34;;;6.58;51.44
26823;BME280;14852;51.910;8.878;2023-04-10T00:19:28;100512.09;;;6.55;51.79
26823;BME280;14852;51.910;8.878;2023-04-10T00:21:55;100514.00;;;6.47;51.80
26823;BME280;14852;51.910;8.878;2023-04-10T00:24:21;100506.38;;;6.42;51.65
26823;BME280;14852;51.910;8.878;2023-04-10T00:26:46;100509.69;;;6.47;52.00
26823;BME280;14852;51.910;8.878;2023-04-10T00:29:12;100510.44;;;6.52;51.98
26823;BME280;14852;51.910;8.878;2023-04-10T00:31:38;100508.53;;;6.59;52.07
26823;BME280;14852;51.910;8.878;2023-04-10T00:34:04;100508.28;;;6.70;52.06
26823;BME280;14852;51.910;8.878;2023-04-10T00:36:30;100502.09;;;6.77;52.01
26823;BME280;14852;51.910;8.878;2023-04-10T00:38:56;100502.88;;;6.80;51.63
26823;BME280;14852;51.910;8.878;2023-04-10T00:41:22;100495.31;;;6.71;51.87
26823;BME280;14852;51.910;8.878;2023-04-10T00:43:48;100490.56;;;6.56;52.13
26823;BME280;14852;51.910;8.878;2023-04-10T00:46:14;100490.69;;;6.50;52.44
26823;BME280;14852;51.910;8.878;2023-04-10T00:48:40;100488.97;;;6.50;52.45
26823;BME280;14852;51.910;8.878;2023-04-10T00:51:06;100489.13;;;6.44;52.54
26823;BME280;14852;51.910;8.878;2023-04-10T00:53:32;100484.97;;;6.37;52.71
26823;BME280;14852;51.910;8.878;2023-04-10T00:56:00;100492.00;;;6.32;52.67
26823;BME280;14852;51.910;8.878;2023-04-10T00:58:26;100490.53;;;6.21;52.75
26823;BME280;14852;51.910;8.878;2023-04-10T01:00:52;100484.59;;;6.17;53.02
26823;BME280;14852;51.910;8.878;2023-04-10T01:03:18;100481.03;;;6.23;53.15
26823;BME280;14852;51.910;8.878;2023-04-10T01:09:16;100482.53;;;6.31;53.15
26823;BME280;14852;51.910;8.878;2023-04-10T01:12:02;100479.75;;;6.40;53.06
26823;BME280;14852;51.910;8.878;2023-04-10T01:14:50;100481.56;;;6.35;52.69
26823;BME280;14852;51.910;8.878;2023-04-10T01:17:27;100475.75;;;6.27;52.84
26823;BME280;14852;51.910;8.878;2023-04-10T01:20:09;100488.66;;;6.27;53.06
26823;BME280;14852;51.910;8.878;2023-04-10T01:26:05;100481.03;;;6.23;53.07
26823;BME280;14852;51.910;8.878;2023-04-10T01:28:59;100475.94;;;6.20;53.48
26823;BME280;14852;51.910;8.878;2023-04-10T01:31:53;100476.66;;;6.25;53.64
26823;BME280;14852;51.910;8.878;2023-04-10T01:34:45;100482.53;;;6.31;53.42
26823;BME280;14852;51.910;8.878;2023-04-10T01:37:22;100479.19;;;6.28;53.43
26823;BME280;14852;51.910;8.878;2023-04-10T01:39:58;100477.34;;;6.33;53.28
26823;BME280;14852;51.910;8.878;2023-04-10T01:42:30;100479.00;;;6.35;53.42
26823;BME280;14852;51.910;8.878;2023-04-10T01:44:57;100486.78;;;6.34;53.42
26823;BME280;14852;51.910;8.878;2023-04-10T01:47:24;100482.50;;;6.33;53.42
26823;BME280;14852;51.910;8.878;2023-04-10T01:49:52;100485.25;;;6.25;53.41
26823;BME280;14852;51.910;8.878;2023-04-10T01:52:20;100493.19;;;6.17;53.52
26823;BME280;14852;51.910;8.878;2023-04-10T01:54:53;100494.06;;;6.16;53.87
26823;BME280;14852;51.910;8.878;2023-04-10T01:57:25;100496.63;;;6.16;53.81
26823;BME280;14852;51.910;8.878;2023-04-10T01:59:57;100494.94;;;6.15;53.84
26823;BME280;14852;51.910;8.878;2023-04-10T02:02:23;100490.78;;;6.10;53.89
26823;BME280;14852;51.910;8.878;2023-04-10T02:04:49;100483.03;;;6.10;53.80
26823;BME280;14852;51.910;8.878;2023-04-10T02:07:43;100483.94;;;6.09;53.95
26823;BME280;14852;51.910;8.878;2023-04-10T02:10:57;100480.53;;;6.07;53.97
26823;BME280;14852;51.910;8.878;2023-04-10T02:13:05;100480.53;;;6.07;54.03
26823;BME280;14852;51.910;8.878;2023-04-10T02:15:32;100468.44;;;6.09;53.97
26823;BME280;14852;51.910;8.878;2023-04-10T02:18:00;100471.00;;;6.10;54.29
26823;BME280;14852;51.910;8.878;2023-04-10T02:20:29;100450.34;;;6.10;54.05
26823;BME280;14852;51.910;8.878;2023-04-10T02:22:57;100453.69;;;6.14;54.10
26823;BME280;14852;51.910;8.878;2023-04-10T02:25:33;100456.91;;;6.24;54.62
26823;BME280;14852;51.910;8.878;2023-04-10T02:28:04;100451.66;;;6.27;54.50
26823;BME280;14852;51.910;8.878;2023-04-10T02:30:31;100454.38;;;6.22;54.23
26823;BME280;14852;51.910;8.878;2023-04-10T02:32:58;100454.44;;;6.19;54.26
26823;BME280;14852;51.910;8.878;2023-04-10T02:35:24;100448.47;;;6.17;54.52
26823;BME280;14852;51.910;8.878;2023-04-10T02:37:51;100445.84;;;6.18;54.54
26823;BME280;14852;51.910;8.878;2023-04-10T02:40:17;100435.47;;;6.22;54.48
26823;BME280;14852;51.910;8.878;2023-04-10T02:42:51;100435.38;;;6.25;54.55
26823;BME280;14852;51.910;8.878;2023-04-10T02:45:17;100437.00;;;6.29;54.41
26823;BME280;14852;51.910;8.878;2023-04-10T02:47:43;100431.84;;;6.29;54.34
26823;BME280;14852;51.910;8.878;2023-04-10T02:50:09;100436.03;;;6.34;54.54
26823;BME280;14852;51.910;8.878;2023-04-10T02:52:39;100427.31;;;6.38;54.34
26823;BME280;14852;51.910;8.878;2023-04-10T02:55:05;100438.41;;;6.42;54.37
26823;BME280;14852;51.910;8.878;2023-04-10T02:57:35;100431.44;;;6.45;54.50
26823;BME280;14852;51.910;8.878;2023-04-10T03:00:02;100428.81;;;6.47;54.52
26823;BME280;14852;51.910;8.878;2023-04-10T03:02:34;100428.06;;;6.43;54.51
26823;BME280;14852;51.910;8.878;2023-04-10T03:05:08;100435.97;;;6.36;54.62
26823;BME280;14852;51.910;8.878;2023-04-10T03:07:34;100441.19;;;6.34;54.69
26823;BME280;14852;51.910;8.878;2023-04-10T03:09:59;100432.53;;;6.35;54.83
26823;BME280;14852;51.910;8.878;2023-04-10T03:12:25;100426.38;;;6.41;54.94
26823;BME280;14852;51.910;8.878;2023-04-10T03:14:51;100426.22;;;6.47;55.07
26823;BME280;14852;51.910;8.878;2023-04-10T03:17:17;100426.81;;;6.58;54.85
26823;BME280;14852;51.910;8.878;2023-04-10T03:19:43;100423.16;;;6.67;54.93
26823;BME280;14852;51.910;8.878;2023-04-10T03:22:09;100422.16;;;6.71;55.05
26823;BME280;14852;51.910;8.878;2023-04-10T03:24:35;100422.03;;;6.77;55.16
26823;BME280;14852;51.910;8.878;2023-04-10T03:27:02;100422.69;;;6.83;55.10
26823;BME280;14852;51.910;8.878;2023-04-10T03:29:28;100420.06;;;6.85;54.96
26823;BME280;14852;51.910;8.878;2023-04-10T03:31:55;100415.81;;;6.84;54.99
26823;BME280;14852;51.910;8.878;2023-04-10T03:34:23;100421.00;;;6.82;55.10
26823;BME280;14852;51.910;8.878;2023-04-10T03:36:48;100413.34;;;6.79;55.10
26823;BME280;14852;51.910;8.878;2023-04-10T03:39:14;100405.53;;;6.81;54.96
26823;BME280;14852;51.910;8.878;2023-04-10T03:41:40;100411.69;;;6.77;55.35
26823;BME280;14852;51.910;8.878;2023-04-10T03:44:06;100409.25;;;6.71;55.37
26823;BME280;14852;51.910;8.878;2023-04-10T03:46:31;100403.41;;;6.64;55.36
26823;BME280;14852;51.910;8.878;2023-04-10T03:48:58;100400.09;;;6.59;55.43
26823;BME280;14852;51.910;8.878;2023-04-10T03:51:25;100394.25;;;6.52;55.67
26823;BME280;14852;51.910;8.878;2023-04-10T03:53:51;100406.28;;;6.53;55.69
26823;BME280;14852;51.910;8.878;2023-04-10T03:56:18;100399.25;;;6.59;55.61
26823;BME280;14852;51.910;8.878;2023-04-10T03:58:45;100394.22;;;6.54;55.29
26823;BME280;14852;51.910;8.878;2023-04-10T04:01:12;100397.81;;;6.47;55.66
26823;BME280;14852;51.910;8.878;2023-04-10T04:03:56;100395.41;;;6.41;55.59
26823;BME280;14852;51.910;8.878;2023-04-10T04:06:44;100392.19;;;6.33;55.62
26823;BME280;14852;51.910;8.878;2023-04-10T04:09:24;100396.53;;;6.31;55.88
26823;BME280;14852;51.910;8.878;2023-04-10T04:12:10;100390.31;;;6.38;55.95
26823;BME280;14852;51.910;8.878;2023-04-10T04:14:58;100393.78;;;6.37;55.78
26823;BME280;14852;51.910;8.878;2023-04-10T04:17:42;100398.09;;;6.36;55.73
26823;BME280;14852;51.910;8.878;2023-04-10T04:20:08;100392.94;;;6.36;55.75
26823;BME280;14852;51.910;8.878;2023-04-10T04:22:40;100395.44;;;6.39;55.83
26823;BME280;14852;51.910;8.878;2023-04-10T04:25:16;100395.31;;;6.45;55.75
26823;BME280;14852;51.910;8.878;2023-04-10T04:28:17;100389.28;;;6.45;55.74
26823;BME280;14852;51.910;8.878;2023-04-10T04:30:52;100385.88;;;6.44;55.83
26823;BME280;14852;51.910;8.878;2023-04-10T04:33:27;100385.88;;;6.44;55.65
26823;BME280;14852;51.910;8.878;2023-04-10T04:36:02;100389.22;;;6.46;55.68
26823;BME280;14852;51.910;8.878;2023-04-10T04:38:47;100390.81;;;6.52;56.07
26823;BME280;14852;51.910;8.878;2023-04-10T04:41:24;100386.41;;;6.57;55.89
26823;BME280;14852;51.910;8.878;2023-04-10T04:44:04;100396.63;;;6.60;56.00
26823;BME280;14852;51.910;8.878;2023-04-10T04:46:50;100390.47;;;6.66;55.91
26823;BME280;14852;51.910;8.878;2023-04-10T04:49:27;100392.78;;;6.76;55.81
26823;BME280;14852;51.910;8.878;2023-04-10T04:52:17;100397.72;;;6.84;55.82
26823;BME280;14852;51.910;8.878;2023-04-10T04:55:00;100397.47;;;6.93;55.52
26823;BME280;14852;51.910;8.878;2023-04-10T04:57:52;100398.81;;;7.06;55.52
26823;BME280;14852;51.910;8.878;2023-04-10T05:00:53;100396.75;;;7.19;55.47
26823;BME280;14852;51.910;8.878;2023-04-10T05:03:38;100392.97;;;7.31;55.16
26823;BME280;14852;51.910;8.878;2023-04-10T05:06:22;100399.53;;;7.42;55.05
26823;BME280;14852;51.910;8.878;2023-04-10T05:09:20;100392.28;;;7.53;54.88
26823;BME280;14852;51.910;8.878;2023-04-10T05:12:10;100398.91;;;7.62;54.90
26823;BME280;14852;51.910;8.878;2023-04-10T05:14:53;100393.38;;;7.74;54.60
26823;BME280;14852;51.910;8.878;2023-04-10T05:17:27;100398.22;;;7.85;54.72
26823;BME280;14852;51.910;8.878;2023-04-10T05:20:08;100400.44;;;7.97;54.38
26823;BME280;14852;51.910;8.878;2023-04-10T05:23:10;100401.91;;;8.06;54.44
26823;BME280;14852;51.910;8.878;2023-04-10T05:25:55;100399.16;;;8.10;54.27
26823;BME280;14852;51.910;8.878;2023-04-10T05:28:45;100392.84;;;8.19;54.47
26823;BME280;14852;51.910;8.878;2023-04-10T05:31:22;100392.41;;;8.32;53.99
26823;BME280;14852;51.910;8.878;2023-04-10T05:33:53;100392.75;;;8.48;54.03
26823;BME280;14852;51.910;8.878;2023-04-10T05:36:28;100395.88;;;8.58;53.53
26823;BME280;14852;51.910;8.878;2023-04-10T05:39:05;100398.75;;;8.75;53.66
26823;BME280;14852;51.910;8.878;2023-04-10T05:41:37;100402.47;;;8.91;53.56
26823;BME280;14852;51.910;8.878;2023-04-10T05:44:22;100399.25;;;9.10;53.12
26823;BME280;14852;51.910;8.878;2023-04-10T05:47:06;100405.59;;;9.24;52.99
26823;BME280;14852;51.910;8.878;2023-04-10T05:49:38;100409.63;;;9.33;53.00
26823;BME280;14852;51.910;8.878;2023-04-10T05:52:23;100405.91;;;9.40;53.04
26823;BME280;14852;51.910;8.878;2023-04-10T05:55:08;100391.88;;;9.46;53.03
26823;BME280;14852;51.910;8.878;2023-04-10T05:57:40;100392.38;;;9.55;53.15
26823;BME280;14852;51.910;8.878;2023-04-10T06:00:41;100380.63;;;9.68;53.12
26823;BME280;14852;51.910;8.878;2023-04-10T06:03:26;100378.91;;;9.89;52.98
26823;BME280;14852;51.910;8.878;2023-04-10T06:05:59;100370.44;;;10.28;52.47
26823;BME280;14852;51.910;8.878;2023-04-10T06:08:25;100372.69;;;10.57;51.73
26823;BME280;14852;51.910;8.878;2023-04-10T06:10:52;100365.97;;;10.92;51.52
26823;BME280;14852;51.910;8.878;2023-04-10T06:13:18;100366.66;;;11.89;49.53
26823;BME280;14852;51.910;8.878;2023-04-10T06:15:44;100351.41;;;13.18;47.03
26823;BME280;14852;51.910;8.878;2023-04-10T06:18:11;100348.16;;;13.77;45.54
26823;BME280;14852;51.910;8.878;2023-04-10T06:20:37;100345.22;;;14.43;44.56
26823;BME280;14852;51.910;8.878;2023-04-10T06:23:02;100337.50;;;15.13;43.61
26823;BME280;14852;51.910;8.878;2023-04-10T06:25:29;100329.75;;;15.93;42.13
26823;BME280;14852;51.910;8.878;2023-04-10T06:27:58;100328.66;;;16.75;40.97
26823;BME280;14852;51.910;8.878;2023-04-10T06:30:24;100323.38;;;17.50;39.54
26823;BME280;14852;51.910;8.878;2023-04-10T06:32:50;100311.44;;;18.39;38.72
26823;BME280;14852;51.910;8.878;2023-04-10T06:35:15;100312.88;;;18.90;37.98
26823;BME280;14852;51.910;8.878;2023-04-10T06:37:41;100309.41;;;18.89;37.81
26823;BME280;14852;51.910;8.878;2023-04-10T06:40:12;100299.03;;;18.53;38.51
26823;BME280;14852;51.910;8.878;2023-04-10T06:42:38;100302.16;;;18.12;39.37
26823;BME280;14852;51.910;8.878;2023-04-10T06:45:11;100314.53;;;17.63;40.10
26823;BME280;14852;51.910;8.878;2023-04-10T06:47:37;100307.25;;;17.30;40.55
26823;BME280;14852;51.910;8.878;2023-04-10T06:50:03;100314.72;;;17.24;40.89
26823;BME280;14852;51.910;8.878;2023-04-10T06:52:30;100315.22;;;16.92;41.14
26823;BME280;14852;51.910;8.878;2023-04-10T06:54:56;100309.75;;;16.95;41.31
26823;BME280;14852;51.910;8.878;2023-04-10T06:57:22;100311.88;;;17.27;40.86
26823;BME280;14852;51.910;8.878;2023-04-10T06:59:47;100304.72;;;17.42;40.52
26823;BME280;14852;51.910;8.878;2023-04-10T07:02:13;100298.25;;;17.82;39.77
26823;BME280;14852;51.910;8.878;2023-04-10T07:04:39;100299.75;;;17.97;39.31
26823;BME280;14852;51.910;8.878;2023-04-10T07:07:05;100303.16;;;18.11;39.23
26823;BME280;14852;51.910;8.878;2023-04-10T07:09:34;100306.38;;;18.83;37.75
26823;BME280;14852;51.910;8.878;2023-04-10T07:12:00;100298.44;;;19.61;36.23
26823;BME280;14852;51.910;8.878;2023-04-10T07:14:25;100297.69;;;20.64;34.96
26823;BME280;14852;51.910;8.878;2023-04-10T07:16:51;100286.22;;;21.24;34.27
26823;BME280;14852;51.910;8.878;2023-04-10T07:19:19;100278.94;;;21.57;34.19
26823;BME280;14852;51.910;8.878;2023-04-10T07:21:45;100276.13;;;21.97;33.58
26823;BME280;14852;51.910;8.878;2023-04-10T07:24:15;100278.91;;;21.95;33.50
26823;BME280;14852;51.910;8.878;2023-04-10T07:26:45;100275.50;;;22.51;32.84
26823;BME280;14852;51.910;8.878;2023-04-10T07:29:12;100278.78;;;22.82;32.15
26823;BME280;14852;51.910;8.878;2023-04-10T07:31:39;100277.22;;;22.89;31.72
26823;BME280;14852;51.910;8.878;2023-04-10T07:34:04;100261.53;;;23.05;31.44
26823;BME280;14852;51.910;8.878;2023-04-10T07:36:31;100271.69;;;23.55;30.59
26823;BME280;14852;51.910;8.878;2023-04-10T07:38:57;100267.69;;;23.87;30.64
26823;BME280;14852;51.910;8.878;2023-04-10T07:41:23;100264.94;;;23.96;30.13
26823;BME280;14852;51.910;8.878;2023-04-10T07:43:49;100267.56;;;24.32;30.25
26823;BME280;14852;51.910;8.878;2023-04-10T07:46:16;100260.47;;;24.74;29.21
26823;BME280;14852;51.910;8.878;2023-04-10T07:48:42;100257.06;;;25.40;29.33
26823;BME280;14852;51.910;8.878;2023-04-10T07:51:09;100243.47;;;26.24;28.05
26823;BME280;14852;51.910;8.878;2023-04-10T07:53:38;100249.97;;;26.22;27.00
26823;BME280;14852;51.910;8.878;2023-04-10T07:56:05;100250.31;;;25.86;27.30
26823;BME280;14852;51.910;8.878;2023-04-10T07:58:30;100233.97;;;26.22;27.40
26823;BME280;14852;51.910;8.878;2023-04-10T08:00:57;100253.88;;;26.66;26.76
26823;BME280;14852;51.910;8.878;2023-04-10T08:03:23;100234.78;;;26.47;25.72
26823;BME280;14852;51.910;8.878;2023-04-10T08:05:49;100239.28;;;26.46;26.04
26823;BME280;14852;51.910;8.878;2023-04-10T08:08:15;100230.91;;;27.04;25.32
26823;BME280;14852;51.910;8.878;2023-04-10T08:10:41;100222.88;;;27.35;24.02
26823;BME280;14852;51.910;8.878;2023-04-10T08:13:07;100229.34;;;26.79;24.33
26823;BME280;14852;51.910;8.878;2023-04-10T08:15:33;100226.19;;;26.76;24.66
26823;BME280;14852;51.910;8.878;2023-04-10T08:17:59;100221.00;;;26.82;24.53
26823;BME280;14852;51.910;8.878;2023-04-10T08:20:25;100219.88;;;26.68;24.56
26823;BME280;14852;51.910;8.878;2023-04-10T08:22:50;100213.78;;;26.52;23.66
26823;BME280;14852;51.910;8.878;2023-04-10T08:25:16;100214.53;;;26.68;24.24
26823;BME280;14852;51.910;8.878;2023-04-10T08:27:42;100209.03;;;26.70;23.65
26823;BME280;14852;51.910;8.878;2023-04-10T08:30:08;100198.69;;;26.20;23.32
26823;BME280;14852;51.910;8.878;2023-04-10T08:32:35;100188.44;;;25.92;23.73
26823;BME280;14852;51.910;8.878;2023-04-10T08:35:00;100190.59;;;25.65;23.91
26823;BME280;14852;51.910;8.878;2023-04-10T08:37:26;100183.09;;;25.76;24.24
26823;BME280;14852;51.910;8.878;2023-04-10T08:39:52;100181.88;;;26.19;23.52
26823;BME280;14852;51.910;8.878;2023-04-10T08:42:18;100180.03;;;26.36;24.25
26823;BME280;14852;51.910;8.878;2023-04-10T08:44:44;100172.13;;;26.90;23.42
26823;BME280;14852;51.910;8.878;2023-04-10T08:47:12;100160.91;;;27.02;23.17
26823;BME280;14852;51.910;8.878;2023-04-10T08:52:17;100167.97;;;26.87;23.30
26823;BME280;14852;51.910;8.878;2023-04-10T08:54:49;100168.03;;;26.40;23.93
26823;BME280;14852;51.910;8.878;2023-04-10T08:57:16;100165.78;;;26.05;23.89
26823;BME280;14852;51.910;8.878;2023-04-10T08:59:44;100163.13;;;25.48;24.61
26823;BME280;14852;51.910;8.878;2023-04-10T09:02:09;100154.63;;;25.20;25.69
26823;BME280;14852;51.910;8.878;2023-04-10T09:04:35;100155.84;;;24.75;26.07
26823;BME280;14852;51.910;8.878;2023-04-10T09:07:01;100169.66;;;24.11;26.96
26823;BME280;14852;51.910;8.878;2023-04-10T09:09:27;100168.06;;;23.57;27.60
26823;BME280;14852;51.910;8.878;2023-04-10T09:11:59;100164.03;;;22.99;28.85
26823;BME280;14852;51.910;8.878;2023-04-10T09:14:27;100163.94;;;22.36;28.36
26823;BME280;14852;51.910;8.878;2023-04-10T09:19:36;100153.53;;;21.30;30.09
26823;BME280;14852;51.910;8.878;2023-04-10T09:22:02;100154.19;;;21.04;30.06
26823;BME280;14852;51.910;8.878;2023-04-10T09:24:27;100150.38;;;20.77;29.96
26823;BME280;14852;51.910;8.878;2023-04-10T09:26:54;100136.41;;;20.46;30.42
26823;BME280;14852;51.910;8.878;2023-04-10T09:29:19;100144.22;;;20.27;30.61
26823;BME280;14852;51.910;8.878;2023-04-10T09:31:45;100151.81;;;20.20;30.76
26823;BME280;14852;51.910;8.878;2023-04-10T09:36:44;100136.63;;;20.03;31.07
26823;BME280;14852;51.910;8.878;2023-04-10T09:39:17;100138.28;;;20.04;30.56
26823;BME280;14852;51.910;8.878;2023-04-10T09:41:51;100120.22;;;20.00;30.41
26823;BME280;14852;51.910;8.878;2023-04-10T09:44:33;100119.44;;;19.88;30.51
26823;BME280;14852;51.910;8.878;2023-04-10T09:47:17;100112.78;;;19.84;31.04
26823;BME280;14852;51.910;8.878;2023-04-10T09:49:54;100125.69;;;19.87;30.82
26823;BME280;14852;51.910;8.878;2023-04-10T09:52:28;100104.88;;;19.84;30.99
26823;BME280;14852;51.910;8.878;2023-04-10T09:55:05;100106.72;;;19.93;31.14
26823;BME280;14852;51.910;8.878;2023-04-10T09:57:34;100096.50;;;20.09;31.43
26823;BME280;14852;51.910;8.878;2023-04-10T10:00:04;100084.19;;;20.19;31.62
26823;BME280;14852;51.910;8.878;2023-04-10T10:02:36;100091.03;;;20.32;31.06
26823;BME280;14852;51.910;8.878;2023-04-10T10:05:06;100080.81;;;20.38;30.58
26823;BME280;14852;51.910;8.878;2023-04-10T10:07:32;100074.72;;;20.38;31.06
26823;BME280;14852;51.910;8.878;2023-04-10T10:09:59;100068.09;;;20.63;30.96
26823;BME280;14852;51.910;8.878;2023-04-10T10:12:49;100060.75;;;20.76;30.51
26823;BME280;14852;51.910;8.878;2023-04-10T10:15:37;100066.69;;;20.78;30.73
26823;BME280;14852;51.910;8.878;2023-04-10T10:18:30;100051.84;;;20.77;30.12
26823;BME280;14852;51.910;8.878;2023-04-10T10:20:58;100036.16;;;20.75;30.60
26823;BME280;14852;51.910;8.878;2023-04-10T10:23:26;100039.06;;;20.82;30.65
26823;BME280;14852;51.910;8.878;2023-04-10T10:25:53;100033.47;;;21.04;30.84
26823;BME280;14852;51.910;8.878;2023-04-10T10:28:20;100029.59;;;20.99;29.45
26823;BME280;14852;51.910;8.878;2023-04-10T10:30:47;100021.13;;;20.95;29.86
26823;BME280;14852;51.910;8.878;2023-04-10T10:33:14;100011.66;;;20.92;29.33
26823;BME280;14852;51.910;8.878;2023-04-10T10:35:40;100005.41;;;20.84;29.50
26823;BME280;14852;51.910;8.878;2023-04-10T10:38:06;100001.38;;;20.89;29.86
26823;BME280;14852;51.910;8.878;2023-04-10T10:40:53;99992.16;;;21.13;30.72
26823;BME280;14852;51.910;8.878;2023-04-10T10:44:03;99994.69;;;21.05;29.99
26823;BME280;14852;51.910;8.878;2023-04-10T10:46:40;99986.50;;;20.98;29.32
26823;BME280;14852;51.910;8.878;2023-04-10T10:49:07;99984.13;;;20.95;29.31
26823;BME280;14852;51.910;8.878;2023-04-10T10:51:50;99981.91;;;20.90;30.00
26823;BME280;14852;51.910;8.878;2023-04-10T10:54:33;99970.78;;;20.77;29.66
26823;BME280;14852;51.910;8.878;2023-04-10T10:57:00;99974.72;;;20.73;29.55
26823;BME280;14852;51.910;8.878;2023-04-10T11:02:16;99965.25;;;20.71;29.88
26823;BME280;14852;51.910;8.878;2023-04-10T11:04:43;99974.13;;;20.79;29.37
26823;BME280;14852;51.910;8.878;2023-04-10T11:07:10;99972.31;;;20.80;29.32
26823;BME280;14852;51.910;8.878;2023-04-10T11:09:44;99961.06;;;20.78;28.71
26823;BME280;14852;51.910;8.878;2023-04-10T11:12:14;99956.22;;;20.83;28.73
26823;BME280;14852;51.910;8.878;2023-04-10T11:14:42;99957.59;;;20.87;29.16
26823;BME280;14852;51.910;8.878;2023-04-10T11:17:09;99954.81;;;20.98;29.38
26823;BME280;14852;51.910;8.878;2023-04-10T11:20:00;99946.84;;;21.17;29.03
26823;BME280;14852;51.910;8.878;2023-04-10T11:22:26;99937.06;;;21.37;28.92
26823;BME280;14852;51.910;8.878;2023-04-10T11:24:58;99939.47;;;21.58;28.28
26823;BME280;14852;51.910;8.878;2023-04-10T11:27:46;99934.63;;;21.53;28.20
26823;BME280;14852;51.910;8.878;2023-04-10T11:30:43;99926.75;;;21.44;27.68
26823;BME280;14852;51.910;8.878;2023-04-10T11:33:16;99929.25;;;21.45;28.36
26823;BME280;14852;51.910;8.878;2023-04-10T11:35:45;99918.03;;;21.61;27.75
26823;BME280;14852;51.910;8.878;2023-04-10T11:38:14;99910.09;;;21.61;27.53
26823;BME280;14852;51.910;8.878;2023-04-10T11:40:54;99912.09;;;21.49;27.83
26823;BME280;14852;51.910;8.878;2023-04-10T11:43:20;99899.75;;;21.40;27.66
26823;BME280;14852;51.910;8.878;2023-04-10T11:45:46;99900.31;;;21.44;27.46
26823;BME280;14852;51.910;8.878;2023-04-10T11:48:13;99894.53;;;21.30;27.71
26823;BME280;14852;51.910;8.878;2023-04-10T11:50:39;99883.41;;;21.27;27.88
26823;BME280;14852;51.910;8.878;2023-04-10T11:53:20;99871.44;;;21.33;28.30
26823;BME280;14852;51.910;8.878;2023-04-10T11:55:48;99879.22;;;21.34;28.38
26823;BME280;14852;51.910;8.878;2023-04-10T11:58:25;99871.16;;;21.26;28.41
26823;BME280;14852;51.910;8.878;2023-04-10T12:01:09;99869.94;;;21.20;28.22
26823;BME280;14852;51.910;8.878;2023-04-10T12:03:43;99871.78;;;21.10;28.00
26823;BME280;14852;51.910;8.878;2023-04-10T12:06:13;99872.91;;;20.98;28.15
26823;BME280;14852;51.910;8.878;2023-04-10T12:08:45;99864.34;;;20.86;28.50
26823;BME280;14852;51.910;8.878;2023-04-10T12:11:24;99866.84;;;20.88;28.58
26823;BME280;14852;51.910;8.878;2023-04-10T12:13:55;99852.34;;;20.92;28.81
26823;BME280;14852;51.910;8.878;2023-04-10T12:16:21;99866.00;;;20.78;29.03
26823;BME280;14852;51.910;8.878;2023-04-10T12:18:48;99857.91;;;20.89;28.97
26823;BME280;14852;51.910;8.878;2023-04-10T12:21:14;99855.38;;;21.07;28.97
26823;BME280;14852;51.910;8.878;2023-04-10T12:23:41;99858.25;;;21.23;28.51
26823;BME280;14852;51.910;8.878;2023-04-10T12:26:10;99840.88;;;21.20;28.59
26823;BME280;14852;51.910;8.878;2023-04-10T12:28:39;99853.50;;;21.17;28.37
26823;BME280;14852;51.910;8.878;2023-04-10T12:31:06;99852.97;;;21.13;28.15
26823;BME280;14852;51.910;8.878;2023-04-10T12:33:32;99837.84;;;21.06;27.99
26823;BME280;14852;51.910;8.878;2023-04-10T12:35:58;99844.25;;;21.03;28.43
26823;BME280;14852;51.910;8.878;2023-04-10T12:38:42;99830.59;;;21.08;28.75
26823;BME280;14852;51.910;8.878;2023-04-10T12:41:10;99828.84;;;20.99;28.51
26823;BME280;14852;51.910;8.878;2023-04-10T12:43:41;99838.72;;;20.96;28.59
26823;BME280;14852;51.910;8.878;2023-04-10T12:46:27;99822.22;;;21.12;28.71
26823;BME280;14852;51.910;8.878;2023-04-10T12:48:56;99815.97;;;21.13;28.59
26823;BME280;14852;51.910;8.878;2023-04-10T12:51:50;99819.16;;;21.17;28.34
26823;BME280;14852;51.910;8.878;2023-04-10T12:54:31;99802.13;;;21.02;27.82
26823;BME280;14852;51.910;8.878;2023-04-10T12:56:58;99801.88;;;20.95;28.29
26823;BME280;14852;51.910;8.878;2023-04-10T12:59:25;99790.91;;;20.90;27.93
26823;BME280;14852;51.910;8.878;2023-04-10T13:01:52;99780.06;;;20.93;28.36
26823;BME280;14852;51.910;8.878;2023-04-10T13:04:18;99786.72;;;20.97;28.41
26823;BME280;14852;51.910;8.878;2023-04-10T13:06:46;99779.91;;;20.94;28.04
26823;BME280;14852;51.910;8.878;2023-04-10T13:09:12;99762.13;;;20.96;28.10
26823;BME280;14852;51.910;8.878;2023-04-10T13:11:39;99779.81;;;21.14;28.33
26823;BME280;14852;51.910;8.878;2023-04-10T13:14:05;99771.34;;;21.20;28.26
26823;BME280;14852;51.910;8.878;2023-04-10T13:16:31;99758.97;;;21.20;27.90
26823;BME280;14852;51.910;8.878;2023-04-10T13:18:57;99744.34;;;21.16;28.23
26823;BME280;14852;51.910;8.878;2023-04-10T13:21:23;99734.53;;;21.09;27.67
26823;BME280;14852;51.910;8.878;2023-04-10T13:23:51;99721.88;;;21.03;27.82
26823;BME280;14852;51.910;8.878;2023-04-10T13:26:17;99728.47;;;20.99;27.80
26823;BME280;14852;51.910;8.878;2023-04-10T13:28:43;99718.31;;;20.94;27.66
26823;BME280;14852;51.910;8.878;2023-04-10T13:31:09;99722.09;;;20.91;27.71
26823;BME280;14852;51.910;8.878;2023-04-10T13:33:35;99714.31;;;20.90;27.63
26823;BME280;14852;51.910;8.878;2023-04-10T13:36:00;99712.75;;;20.97;28.40